sensor_id;sensor_type;location;lat;lon;timestamp;P1;durP1;ratioP1;P2;durP2;ratioP2
83895;SDS011;74045;42.812;74.638;2024-03-17T00:01:45;49.97;;;14.18;;
83895;SDS011;74045;42.812;74.638;2024-03-17T00:04:11;80.20;;;18.23;;
83895;SDS011;74045;42.812;74.638;2024-03-17T00:06:36;85.22;;;20.63;;
83895;SDS011;74045;42.812;74.638;2024-03-17T00:09:02;71.70;;;19.63;;
83895;SDS011;74045;42.812;74.638;2024-03-17T00:11:32;93.97;;;22.40;;
83895;SDS011;74045;42.812;74.638;2024-03-17T00:14:00;97.68;;;22.55;;
83895;SDS011;74045;42.812;74.638;2024-03-17T00:16:26;90.00;;;21.67;;
83895;SDS011;74045;42.812;74.638;2024-03-17T00:18:53;76.20;;;20.65;;
83895;SDS011;74045;42.812;74.638;2024-03-17T00:21:18;80.75;;;21.05;;
83895;SDS011;74045;42.812;74.638;2024-03-17T00:23:47;51.35;;;16.33;;
83895;SDS011;74045;42.812;74.638;2024-03-17T00:26:14;46.63;;;13.90;;
83895;SDS011;74045;42.812;74.638;2024-03-17T00:28:40;42.63;;;11.93;;
83895;SDS011;74045;42.812;74.638;2024-03-17T00:31:07;37.33;;;13.13;;
83895;SDS011;74045;42.812;74.638;2024-03-17T00:33:35;37.22;;;10.07;;
83895;SDS011;74045;42.812;74.638;2024-03-17T00:36:01;22.98;;;8.25;;
83895;SDS011;74045;42.812;74.638;2024-03-17T00:38:26;20.38;;;8.48;;
83895;SDS011;74045;42.812;74.638;2024-03-17T00:40:52;15.55;;;6.30;;
83895;SDS011;74045;42.812;74.638;2024-03-17T00:43:18;16.08;;;6.68;;
83895;SDS011;74045;42.812;74.638;2024-03-17T00:45:44;11.57;;;5.78;;
83895;SDS011;74045;42.812;74.638;2024-03-17T00:48:16;18.20;;;6.15;;
83895;SDS011;74045;42.812;74.638;2024-03-17T00:50:41;14.18;;;5.07;;
83895;SDS011;74045;42.812;74.638;2024-03-17T00:53:10;11.25;;;4.53;;
83895;SDS011;74045;42.812;74.638;2024-03-17T00:55:36;13.75;;;4.53;;
83895;SDS011;74045;42.812;74.638;2024-03-17T00:58:02;10.57;;;5.05;;
83895;SDS011;74045;42.812;74.638;2024-03-17T01:00:28;13.05;;;4.10;;
83895;SDS011;74045;42.812;74.638;2024-03-17T01:02:54;8.93;;;4.00;;
83895;SDS011;74045;42.812;74.638;2024-03-17T01:05:21;14.88;;;3.83;;
83895;SDS011;74045;42.812;74.638;2024-03-17T01:07:47;7.13;;;3.58;;
83895;SDS011;74045;42.812;74.638;2024-03-17T01:10:14;11.52;;;4.00;;
83895;SDS011;74045;42.812;74.638;2024-03-17T01:12:39;9.20;;;3.13;;
83895;SDS011;74045;42.812;74.638;2024-03-17T01:15:05;8.48;;;3.47;;
83895;SDS011;74045;42.812;74.638;2024-03-17T01:17:32;11.20;;;3.55;;
83895;SDS011;74045;42.812;74.638;2024-03-17T01:19:57;9.23;;;3.67;;
83895;SDS011;74045;42.812;74.638;2024-03-17T01:22:23;11.18;;;3.72;;
83895;SDS011;74045;42.812;74.638;2024-03-17T01:24:49;13.13;;;4.13;;
83895;SDS011;74045;42.812;74.638;2024-03-17T01:27:14;11.32;;;3.63;;
83895;SDS011;74045;42.812;74.638;2024-03-17T01:29:41;11.00;;;4.35;;
83895;SDS011;74045;42.812;74.638;2024-03-17T01:32:11;8.77;;;3.97;;
83895;SDS011;74045;42.812;74.638;2024-03-17T01:34:37;9.50;;;4.60;;
83895;SDS011;74045;42.812;74.638;2024-03-17T01:37:03;14.73;;;4.68;;
83895;SDS011;74045;42.812;74.638;2024-03-17T01:39:29;14.02;;;4.75;;
83895;SDS011;74045;42.812;74.638;2024-03-17T01:41:57;11.85;;;4.32;;
83895;SDS011;74045;42.812;74.638;2024-03-17T01:44:27;16.35;;;4.10;;
83895;SDS011;74045;42.812;74.638;2024-03-17T01:46:54;11.82;;;4.40;;
83895;SDS011;74045;42.812;74.638;2024-03-17T01:49:21;18.33;;;4.65;;
83895;SDS011;74045;42.812;74.638;2024-03-17T01:51:48;18.55;;;5.00;;
83895;SDS011;74045;42.812;74.638;2024-03-17T01:54:14;24.08;;;4.85;;
83895;SDS011;74045;42.812;74.638;2024-03-17T01:56:41;12.48;;;5.13;;
83895;SDS011;74045;42.812;74.638;2024-03-17T01:59:08;19.27;;;4.53;;
83895;SDS011;74045;42.812;74.638;2024-03-17T02:01:37;15.70;;;4.93;;
83895;SDS011;74045;42.812;74.638;2024-03-17T02:04:05;16.05;;;4.95;;
83895;SDS011;74045;42.812;74.638;2024-03-17T02:06:32;10.68;;;4.55;;
83895;SDS011;74045;42.812;74.638;2024-03-17T02:08:57;19.33;;;4.97;;
83895;SDS011;74045;42.812;74.638;2024-03-17T02:11:24;20.05;;;5.60;;
83895;SDS011;74045;42.812;74.638;2024-03-17T02:13:54;25.45;;;4.25;;
83895;SDS011;74045;42.812;74.638;2024-03-17T02:16:21;22.20;;;5.03;;
83895;SDS011;74045;42.812;74.638;2024-03-17T02:18:48;14.80;;;5.03;;
83895;SDS011;74045;42.812;74.638;2024-03-17T02:21:14;12.50;;;4.43;;
83895;SDS011;74045;42.812;74.638;2024-03-17T02:23:41;17.55;;;4.38;;
83895;SDS011;74045;42.812;74.638;2024-03-17T02:26:08;13.07;;;3.85;;
83895;SDS011;74045;42.812;74.638;2024-03-17T02:28:43;15.13;;;4.43;;
83895;SDS011;74045;42.812;74.638;2024-03-17T02:31:10;7.10;;;2.97;;
83895;SDS011;74045;42.812;74.638;2024-03-17T02:33:38;23.27;;;4.30;;
83895;SDS011;74045;42.812;74.638;2024-03-17T02:36:04;10.52;;;4.28;;
83895;SDS011;74045;42.812;74.638;2024-03-17T02:38:35;8.05;;;3.58;;
83895;SDS011;74045;42.812;74.638;2024-03-17T02:41:20;11.55;;;4.85;;
83895;SDS011;74045;42.812;74.638;2024-03-17T02:43:47;11.32;;;4.38;;
83895;SDS011;74045;42.812;74.638;2024-03-17T02:46:13;11.35;;;3.63;;
83895;SDS011;74045;42.812;74.638;2024-03-17T02:48:40;10.77;;;3.83;;
83895;SDS011;74045;42.812;74.638;2024-03-17T02:51:10;9.95;;;3.95;;
83895;SDS011;74045;42.812;74.638;2024-03-17T02:53:37;8.05;;;3.42;;
83895;SDS011;74045;42.812;74.638;2024-03-17T02:56:03;11.80;;;3.55;;
83895;SDS011;74045;42.812;74.638;2024-03-17T02:58:29;9.90;;;3.22;;
83895;SDS011;74045;42.812;74.638;2024-03-17T03:00:54;13.10;;;4.07;;
83895;SDS011;74045;42.812;74.638;2024-03-17T03:03:20;11.60;;;3.78;;
83895;SDS011;74045;42.812;74.638;2024-03-17T03:05:46;7.32;;;2.72;;
83895;SDS011;74045;42.812;74.638;2024-03-17T03:08:14;8.45;;;3.40;;
83895;SDS011;74045;42.812;74.638;2024-03-17T03:10:43;9.27;;;3.30;;
83895;SDS011;74045;42.812;74.638;2024-03-17T03:13:11;7.70;;;3.17;;
83895;SDS011;74045;42.812;74.638;2024-03-17T03:15:37;10.82;;;3.30;;
83895;SDS011;74045;42.812;74.638;2024-03-17T03:18:04;9.05;;;2.92;;
83895;SDS011;74045;42.812;74.638;2024-03-17T03:20:31;11.98;;;3.15;;
83895;SDS011;74045;42.812;74.638;2024-03-17T03:22:57;12.00;;;3.05;;
83895;SDS011;74045;42.812;74.638;2024-03-17T03:25:23;16.20;;;3.60;;
83895;SDS011;74045;42.812;74.638;2024-03-17T03:27:48;10.55;;;3.30;;
83895;SDS011;74045;42.812;74.638;2024-03-17T03:30:15;15.15;;;3.60;;
83895;SDS011;74045;42.812;74.638;2024-03-17T03:32:41;11.90;;;3.80;;
83895;SDS011;74045;42.812;74.638;2024-03-17T03:35:07;11.02;;;3.70;;
83895;SDS011;74045;42.812;74.638;2024-03-17T03:37:34;17.00;;;3.63;;
83895;SDS011;74045;42.812;74.638;2024-03-17T03:40:00;8.50;;;3.35;;
83895;SDS011;74045;42.812;74.638;2024-03-17T03:42:25;9.75;;;2.90;;
83895;SDS011;74045;42.812;74.638;2024-03-17T03:44:52;8.55;;;3.15;;
83895;SDS011;74045;42.812;74.638;2024-03-17T03:47:18;13.05;;;3.45;;
83895;SDS011;74045;42.812;74.638;2024-03-17T03:49:44;12.32;;;3.28;;
83895;SDS011;74045;42.812;74.638;2024-03-17T03:52:10;14.85;;;3.40;;
83895;SDS011;74045;42.812;74.638;2024-03-17T03:54:36;10.95;;;3.33;;
83895;SDS011;74045;42.812;74.638;2024-03-17T03:57:03;17.90;;;4.10;;
83895;SDS011;74045;42.812;74.638;2024-03-17T03:59:29;11.93;;;3.30;;
83895;SDS011;74045;42.812;74.638;2024-03-17T04:01:54;16.40;;;4.30;;
83895;SDS011;74045;42.812;74.638;2024-03-17T04:04:20;16.73;;;4.32;;
83895;SDS011;74045;42.812;74.638;2024-03-17T04:06:46;12.27;;;5.32;;
83895;SDS011;74045;42.812;74.638;2024-03-17T04:09:12;14.15;;;6.05;;
83895;SDS011;74045;42.812;74.638;2024-03-17T04:11:38;27.90;;;10.23;;
83895;SDS011;74045;42.812;74.638;2024-03-17T04:14:03;39.42;;;13.07;;
83895;SDS011;74045;42.812;74.638;2024-03-17T04:16:30;46.08;;;15.13;;
83895;SDS011;74045;42.812;74.638;2024-03-17T04:18:56;23.38;;;9.02;;
83895;SDS011;74045;42.812;74.638;2024-03-17T04:21:22;24.05;;;7.85;;
83895;SDS011;74045;42.812;74.638;2024-03-17T04:23:48;19.20;;;7.28;;
83895;SDS011;74045;42.812;74.638;2024-03-17T04:26:14;15.98;;;5.57;;
83895;SDS011;74045;42.812;74.638;2024-03-17T04:28:40;18.95;;;8.65;;
83895;SDS011;74045;42.812;74.638;2024-03-17T04:31:06;21.90;;;6.63;;
83895;SDS011;74045;42.812;74.638;2024-03-17T04:33:33;18.25;;;6.10;;
83895;SDS011;74045;42.812;74.638;2024-03-17T04:35:59;24.00;;;7.07;;
83895;SDS011;74045;42.812;74.638;2024-03-17T04:38:27;19.35;;;6.93;;
83895;SDS011;74045;42.812;74.638;2024-03-17T04:40:53;28.80;;;7.88;;
83895;SDS011;74045;42.812;74.638;2024-03-17T04:43:29;18.85;;;7.28;;
83895;SDS011;74045;42.812;74.638;2024-03-17T04:46:02;20.40;;;7.95;;
83895;SDS011;74045;42.812;74.638;2024-03-17T04:48:29;19.55;;;8.05;;
83895;SDS011;74045;42.812;74.638;2024-03-17T04:50:56;23.42;;;8.70;;
83895;SDS011;74045;42.812;74.638;2024-03-17T04:53:22;32.55;;;10.52;;
83895;SDS011;74045;42.812;74.638;2024-03-17T04:55:48;23.85;;;9.48;;
83895;SDS011;74045;42.812;74.638;2024-03-17T04:58:24;29.30;;;9.52;;
83895;SDS011;74045;42.812;74.638;2024-03-17T05:00:50;21.17;;;9.32;;
83895;SDS011;74045;42.812;74.638;2024-03-17T05:03:15;24.13;;;9.82;;
83895;SDS011;74045;42.812;74.638;2024-03-17T05:05:41;31.52;;;11.13;;
83895;SDS011;74045;42.812;74.638;2024-03-17T05:08:07;33.65;;;10.90;;
83895;SDS011;74045;42.812;74.638;2024-03-17T05:10:32;34.85;;;11.52;;
83895;SDS011;74045;42.812;74.638;2024-03-17T05:12:58;35.17;;;12.85;;
83895;SDS011;74045;42.812;74.638;2024-03-17T05:15:24;32.10;;;13.05;;
83895;SDS011;74045;42.812;74.638;2024-03-17T05:17:49;33.85;;;15.65;;
83895;SDS011;74045;42.812;74.638;2024-03-17T05:20:15;39.13;;;14.82;;
83895;SDS011;74045;42.812;74.638;2024-03-17T05:22:41;42.88;;;15.57;;
83895;SDS011;74045;42.812;74.638;2024-03-17T05:25:07;44.38;;;16.95;;
83895;SDS011;74045;42.812;74.638;2024-03-17T05:27:33;44.42;;;16.65;;
83895;SDS011;74045;42.812;74.638;2024-03-17T05:29:59;57.90;;;16.88;;
83895;SDS011;74045;42.812;74.638;2024-03-17T05:32:24;42.00;;;17.45;;
83895;SDS011;74045;42.812;74.638;2024-03-17T05:34:52;45.53;;;17.17;;
83895;SDS011;74045;42.812;74.638;2024-03-17T05:37:17;38.38;;;17.25;;
83895;SDS011;74045;42.812;74.638;2024-03-17T05:39:43;44.67;;;17.23;;
83895;SDS011;74045;42.812;74.638;2024-03-17T05:42:09;46.42;;;16.50;;
83895;SDS011;74045;42.812;74.638;2024-03-17T05:44:34;44.22;;;16.05;;
83895;SDS011;74045;42.812;74.638;2024-03-17T05:47:16;35.30;;;15.38;;
83895;SDS011;74045;42.812;74.638;2024-03-17T05:49:43;35.10;;;16.15;;
83895;SDS011;74045;42.812;74.638;2024-03-17T05:52:08;41.60;;;16.10;;
83895;SDS011;74045;42.812;74.638;2024-03-17T05:54:35;35.45;;;14.98;;
83895;SDS011;74045;42.812;74.638;2024-03-17T05:57:01;31.98;;;12.75;;
83895;SDS011;74045;42.812;74.638;2024-03-17T05:59:29;35.22;;;14.15;;
83895;SDS011;74045;42.812;74.638;2024-03-17T06:01:56;35.78;;;13.05;;
83895;SDS011;74045;42.812;74.638;2024-03-17T06:04:22;32.92;;;14.00;;
83895;SDS011;74045;42.812;74.638;2024-03-17T06:06:49;36.80;;;14.10;;
83895;SDS011;74045;42.812;74.638;2024-03-17T06:09:15;27.85;;;13.82;;
83895;SDS011;74045;42.812;74.638;2024-03-17T06:11:43;35.92;;;12.75;;
83895;SDS011;74045;42.812;74.638;2024-03-17T06:14:12;28.15;;;12.73;;
83895;SDS011;74045;42.812;74.638;2024-03-17T06:16:38;31.73;;;13.27;;
83895;SDS011;74045;42.812;74.638;2024-03-17T06:19:04;32.95;;;12.70;;
83895;SDS011;74045;42.812;74.638;2024-03-17T06:21:30;28.88;;;13.05;;
83895;SDS011;74045;42.812;74.638;2024-03-17T06:23:56;28.48;;;12.70;;
83895;SDS011;74045;42.812;74.638;2024-03-17T06:26:22;29.55;;;13.27;;
83895;SDS011;74045;42.812;74.638;2024-03-17T06:28:48;33.55;;;12.40;;
83895;SDS011;74045;42.812;74.638;2024-03-17T06:31:14;30.65;;;14.07;;
83895;SDS011;74045;42.812;74.638;2024-03-17T06:33:40;33.17;;;14.48;;
83895;SDS011;74045;42.812;74.638;2024-03-17T06:36:06;32.15;;;13.05;;
83895;SDS011;74045;42.812;74.638;2024-03-17T06:38:32;25.40;;;12.35;;
83895;SDS011;74045;42.812;74.638;2024-03-17T06:40:58;27.77;;;11.20;;
83895;SDS011;74045;42.812;74.638;2024-03-17T06:43:24;34.38;;;12.25;;
83895;SDS011;74045;42.812;74.638;2024-03-17T06:45:53;33.58;;;14.15;;
83895;SDS011;74045;42.812;74.638;2024-03-17T06:48:20;33.15;;;13.02;;
83895;SDS011;74045;42.812;74.638;2024-03-17T06:50:46;31.58;;;13.38;;
83895;SDS011;74045;42.812;74.638;2024-03-17T06:53:12;32.25;;;13.50;;
83895;SDS011;74045;42.812;74.638;2024-03-17T06:55:38;31.10;;;14.00;;
83895;SDS011;74045;42.812;74.638;2024-03-17T06:58:03;36.22;;;16.33;;
83895;SDS011;74045;42.812;74.638;2024-03-17T07:00:29;32.58;;;14.88;;
83895;SDS011;74045;42.812;74.638;2024-03-17T07:02:55;52.80;;;15.00;;
83895;SDS011;74045;42.812;74.638;2024-03-17T07:05:20;39.45;;;16.50;;
83895;SDS011;74045;42.812;74.638;2024-03-17T07:07:46;37.33;;;16.02;;
83895;SDS011;74045;42.812;74.638;2024-03-17T07:10:12;42.50;;;16.77;;
83895;SDS011;74045;42.812;74.638;2024-03-17T07:12:39;37.22;;;15.90;;
83895;SDS011;74045;42.812;74.638;2024-03-17T07:15:05;40.97;;;16.13;;
83895;SDS011;74045;42.812;74.638;2024-03-17T07:17:31;34.53;;;16.00;;
83895;SDS011;74045;42.812;74.638;2024-03-17T07:19:58;38.38;;;14.90;;
83895;SDS011;74045;42.812;74.638;2024-03-17T07:22:23;48.17;;;17.52;;
83895;SDS011;74045;42.812;74.638;2024-03-17T07:24:51;37.58;;;18.33;;
83895;SDS011;74045;42.812;74.638;2024-03-17T07:27:21;52.45;;;21.67;;
83895;SDS011;74045;42.812;74.638;2024-03-17T07:29:48;46.85;;;21.70;;
83895;SDS011;74045;42.812;74.638;2024-03-17T07:32:13;50.45;;;20.75;;
83895;SDS011;74045;42.812;74.638;2024-03-17T07:34:39;54.20;;;22.33;;
83895;SDS011;74045;42.812;74.638;2024-03-17T07:37:04;50.13;;;21.08;;
83895;SDS011;74045;42.812;74.638;2024-03-17T07:39:31;49.92;;;23.35;;
83895;SDS011;74045;42.812;74.638;2024-03-17T07:41:59;55.20;;;24.25;;
83895;SDS011;74045;42.812;74.638;2024-03-17T07:44:27;47.63;;;22.02;;
83895;SDS011;74045;42.812;74.638;2024-03-17T07:47:02;51.00;;;23.15;;
83895;SDS011;74045;42.812;74.638;2024-03-17T07:49:29;49.65;;;23.17;;
83895;SDS011;74045;42.812;74.638;2024-03-17T07:51:55;50.67;;;22.45;;
83895;SDS011;74045;42.812;74.638;2024-03-17T07:54:23;49.50;;;22.77;;
83895;SDS011;74045;42.812;74.638;2024-03-17T07:56:49;51.53;;;25.08;;
83895;SDS011;74045;42.812;74.638;2024-03-17T07:59:14;42.17;;;17.75;;
83895;SDS011;74045;42.812;74.638;2024-03-17T08:01:42;54.53;;;23.63;;
83895;SDS011;74045;42.812;74.638;2024-03-17T08:04:08;55.65;;;24.13;;
83895;SDS011;74045;42.812;74.638;2024-03-17T08:06:37;54.33;;;24.15;;
83895;SDS011;74045;42.812;74.638;2024-03-17T08:09:04;48.47;;;22.08;;
83895;SDS011;74045;42.812;74.638;2024-03-17T08:11:29;47.17;;;22.58;;
83895;SDS011;74045;42.812;74.638;2024-03-17T08:13:55;55.75;;;23.33;;
83895;SDS011;74045;42.812;74.638;2024-03-17T08:16:21;50.70;;;22.38;;
83895;SDS011;74045;42.812;74.638;2024-03-17T08:18:47;54.55;;;22.55;;
83895;SDS011;74045;42.812;74.638;2024-03-17T08:21:12;67.78;;;23.95;;
83895;SDS011;74045;42.812;74.638;2024-03-17T08:23:38;48.33;;;22.50;;
83895;SDS011;74045;42.812;74.638;2024-03-17T08:26:07;54.35;;;21.35;;
83895;SDS011;74045;42.812;74.638;2024-03-17T08:28:33;56.95;;;21.52;;
83895;SDS011;74045;42.812;74.638;2024-03-17T08:31:00;51.10;;;21.50;;
83895;SDS011;74045;42.812;74.638;2024-03-17T08:33:27;47.95;;;21.67;;
83895;SDS011;74045;42.812;74.638;2024-03-17T08:35:57;43.95;;;21.50;;
83895;SDS011;74045;42.812;74.638;2024-03-17T08:38:24;42.30;;;19.85;;
83895;SDS011;74045;42.812;74.638;2024-03-17T08:40:52;52.97;;;21.15;;
83895;SDS011;74045;42.812;74.638;2024-03-17T08:43:19;43.45;;;19.85;;
83895;SDS011;74045;42.812;74.638;2024-03-17T08:45:55;57.58;;;20.50;;
83895;SDS011;74045;42.812;74.638;2024-03-17T08:48:27;47.08;;;21.35;;
83895;SDS011;74045;42.812;74.638;2024-03-17T08:50:54;46.80;;;20.10;;
83895;SDS011;74045;42.812;74.638;2024-03-17T08:53:20;49.92;;;20.60;;
83895;SDS011;74045;42.812;74.638;2024-03-17T08:55:47;59.40;;;21.70;;
83895;SDS011;74045;42.812;74.638;2024-03-17T08:58:13;48.75;;;21.75;;
83895;SDS011;74045;42.812;74.638;2024-03-17T09:00:39;41.20;;;18.92;;
83895;SDS011;74045;42.812;74.638;2024-03-17T09:03:06;41.75;;;19.92;;
83895;SDS011;74045;42.812;74.638;2024-03-17T09:05:35;47.78;;;21.13;;
83895;SDS011;74045;42.812;74.638;2024-03-17T09:08:01;54.00;;;21.70;;
83895;SDS011;74045;42.812;74.638;2024-03-17T09:10:27;54.13;;;21.52;;
83895;SDS011;74045;42.812;74.638;2024-03-17T09:12:53;45.08;;;21.50;;
83895;SDS011;74045;42.812;74.638;2024-03-17T09:15:19;52.47;;;21.08;;
83895;SDS011;74045;42.812;74.638;2024-03-17T09:17:46;53.78;;;21.75;;
83895;SDS011;74045;42.812;74.638;2024-03-17T09:20:12;54.88;;;21.60;;
83895;SDS011;74045;42.812;74.638;2024-03-17T09:22:40;50.10;;;23.02;;
83895;SDS011;74045;42.812;74.638;2024-03-17T09:25:07;55.63;;;23.67;;
83895;SDS011;74045;42.812;74.638;2024-03-17T09:27:33;46.00;;;21.75;;
83895;SDS011;74045;42.812;74.638;2024-03-17T09:30:02;57.50;;;22.85;;
83895;SDS011;74045;42.812;74.638;2024-03-17T09:32:34;49.13;;;21.42;;
83895;SDS011;74045;42.812;74.638;2024-03-17T09:35:00;49.80;;;21.42;;
83895;SDS011;74045;42.812;74.638;2024-03-17T09:37:26;44.97;;;22.73;;
83895;SDS011;74045;42.812;74.638;2024-03-17T09:39:52;42.33;;;22.63;;
83895;SDS011;74045;42.812;74.638;2024-03-17T09:42:18;50.97;;;22.83;;
83895;SDS011;74045;42.812;74.638;2024-03-17T09:44:45;45.05;;;20.98;;
83895;SDS011;74045;42.812;74.638;2024-03-17T09:47:16;54.92;;;21.90;;
83895;SDS011;74045;42.812;74.638;2024-03-17T09:49:48;45.80;;;21.05;;
83895;SDS011;74045;42.812;74.638;2024-03-17T09:52:21;45.55;;;23.42;;
83895;SDS011;74045;42.812;74.638;2024-03-17T09:54:52;49.95;;;21.67;;
83895;SDS011;74045;42.812;74.638;2024-03-17T09:57:38;44.88;;;22.13;;
83895;SDS011;74045;42.812;74.638;2024-03-17T10:00:11;50.15;;;22.95;;
83895;SDS011;74045;42.812;74.638;2024-03-17T10:05:19;44.80;;;21.63;;
83895;SDS011;74045;42.812;74.638;2024-03-17T10:07:49;39.38;;;20.30;;
83895;SDS011;74045;42.812;74.638;2024-03-17T10:10:15;46.30;;;21.05;;
83895;SDS011;74045;42.812;74.638;2024-03-17T10:12:42;45.10;;;20.25;;
83895;SDS011;74045;42.812;74.638;2024-03-17T10:15:10;39.60;;;18.48;;
83895;SDS011;74045;42.812;74.638;2024-03-17T10:17:37;42.33;;;19.60;;
83895;SDS011;74045;42.812;74.638;2024-03-17T10:25:28;39.60;;;20.27;;
83895;SDS011;74045;42.812;74.638;2024-03-17T10:27:54;40.92;;;19.98;;
83895;SDS011;74045;42.812;74.638;2024-03-17T10:30:22;39.55;;;18.90;;
83895;SDS011;74045;42.812;74.638;2024-03-17T10:32:54;40.17;;;18.73;;
83895;SDS011;74045;42.812;74.638;2024-03-17T10:35:32;39.17;;;18.17;;
83895;SDS011;74045;42.812;74.638;2024-03-17T10:38:04;42.95;;;19.35;;
83895;SDS011;74045;42.812;74.638;2024-03-17T10:40:31;39.83;;;18.63;;
83895;SDS011;74045;42.812;74.638;2024-03-17T10:43:04;32.20;;;16.63;;
83895;SDS011;74045;42.812;74.638;2024-03-17T10:45:31;37.65;;;17.35;;
83895;SDS011;74045;42.812;74.638;2024-03-17T10:48:03;39.42;;;17.58;;
83895;SDS011;74045;42.812;74.638;2024-03-17T10:50:36;41.75;;;18.40;;
83895;SDS011;74045;42.812;74.638;2024-03-17T10:53:04;37.38;;;18.20;;
83895;SDS011;74045;42.812;74.638;2024-03-17T10:55:46;40.60;;;17.48;;
83895;SDS011;74045;42.812;74.638;2024-03-17T10:58:34;35.70;;;17.85;;
83895;SDS011;74045;42.812;74.638;2024-03-17T11:01:11;37.63;;;17.27;;
83895;SDS011;74045;42.812;74.638;2024-03-17T11:03:39;35.17;;;17.42;;
83895;SDS011;74045;42.812;74.638;2024-03-17T11:06:06;36.65;;;17.33;;
83895;SDS011;74045;42.812;74.638;2024-03-17T11:08:33;32.28;;;18.33;;
83895;SDS011;74045;42.812;74.638;2024-03-17T11:11:00;41.22;;;18.92;;
83895;SDS011;74045;42.812;74.638;2024-03-17T11:13:29;33.38;;;18.02;;
83895;SDS011;74045;42.812;74.638;2024-03-17T11:15:57;47.65;;;19.30;;
83895;SDS011;74045;42.812;74.638;2024-03-17T11:21:02;42.78;;;19.02;;
83895;SDS011;74045;42.812;74.638;2024-03-17T11:23:40;41.47;;;19.00;;
83895;SDS011;74045;42.812;74.638;2024-03-17T11:26:07;38.17;;;17.77;;
83895;SDS011;74045;42.812;74.638;2024-03-17T11:34:07;35.47;;;15.88;;
83895;SDS011;74045;42.812;74.638;2024-03-17T11:36:52;35.40;;;17.25;;
83895;SDS011;74045;42.812;74.638;2024-03-17T11:39:21;35.53;;;16.85;;
83895;SDS011;74045;42.812;74.638;2024-03-17T11:42:22;38.92;;;17.73;;
83895;SDS011;74045;42.812;74.638;2024-03-17T11:45:03;40.15;;;17.90;;
83895;SDS011;74045;42.812;74.638;2024-03-17T11:47:40;42.75;;;17.77;;
83895;SDS011;74045;42.812;74.638;2024-03-17T11:50:07;37.70;;;17.10;;
83895;SDS011;74045;42.812;74.638;2024-03-17T11:52:35;38.70;;;17.98;;
83895;SDS011;74045;42.812;74.638;2024-03-17T11:55:01;35.50;;;16.33;;
83895;SDS011;74045;42.812;74.638;2024-03-17T11:57:27;47.72;;;17.52;;
83895;SDS011;74045;42.812;74.638;2024-03-17T11:59:53;36.05;;;16.48;;
83895;SDS011;74045;42.812;74.638;2024-03-17T12:02:24;41.70;;;17.13;;
83895;SDS011;74045;42.812;74.638;2024-03-17T12:04:56;37.70;;;17.08;;
83895;SDS011;74045;42.812;74.638;2024-03-17T12:07:23;35.22;;;16.45;;
83895;SDS011;74045;42.812;74.638;2024-03-17T12:09:50;43.35;;;18.65;;
83895;SDS011;74045;42.812;74.638;2024-03-17T12:12:18;33.83;;;17.52;;
83895;SDS011;74045;42.812;74.638;2024-03-17T12:14:46;34.05;;;15.55;;
83895;SDS011;74045;42.812;74.638;2024-03-17T12:17:14;33.53;;;15.73;;
83895;SDS011;74045;42.812;74.638;2024-03-17T12:19:41;41.60;;;17.02;;
83895;SDS011;74045;42.812;74.638;2024-03-17T12:22:14;34.53;;;17.05;;
83895;SDS011;74045;42.812;74.638;2024-03-17T12:24:43;35.30;;;16.50;;
83895;SDS011;74045;42.812;74.638;2024-03-17T12:27:15;36.30;;;16.48;;
83895;SDS011;74045;42.812;74.638;2024-03-17T12:29:47;37.28;;;16.90;;
83895;SDS011;74045;42.812;74.638;2024-03-17T12:34:44;37.38;;;17.17;;
83895;SDS011;74045;42.812;74.638;2024-03-17T12:37:20;35.28;;;17.20;;
83895;SDS011;74045;42.812;74.638;2024-03-17T12:39:48;39.63;;;17.52;;
83895;SDS011;74045;42.812;74.638;2024-03-17T12:42:24;42.40;;;19.05;;
83895;SDS011;74045;42.812;74.638;2024-03-17T12:44:51;42.67;;;19.42;;
83895;SDS011;74045;42.812;74.638;2024-03-17T12:47:19;44.42;;;20.75;;
83895;SDS011;74045;42.812;74.638;2024-03-17T12:54:55;51.05;;;23.10;;
83895;SDS011;74045;42.812;74.638;2024-03-17T13:00:46;51.90;;;20.75;;
83895;SDS011;74045;42.812;74.638;2024-03-17T13:03:35;49.03;;;22.42;;
83895;SDS011;74045;42.812;74.638;2024-03-17T13:06:05;50.17;;;20.77;;
83895;SDS011;74045;42.812;74.638;2024-03-17T13:08:32;47.63;;;21.55;;
83895;SDS011;74045;42.812;74.638;2024-03-17T13:10:58;51.15;;;22.95;;
83895;SDS011;74045;42.812;74.638;2024-03-17T13:13:24;47.67;;;21.55;;
83895;SDS011;74045;42.812;74.638;2024-03-17T13:15:50;51.75;;;22.48;;
83895;SDS011;74045;42.812;74.638;2024-03-17T13:18:17;55.85;;;22.95;;
83895;SDS011;74045;42.812;74.638;2024-03-17T13:20:47;48.38;;;21.65;;
83895;SDS011;74045;42.812;74.638;2024-03-17T13:23:18;52.53;;;20.92;;
83895;SDS011;74045;42.812;74.638;2024-03-17T13:25:44;50.55;;;20.88;;
83895;SDS011;74045;42.812;74.638;2024-03-17T13:28:10;47.65;;;20.95;;
83895;SDS011;74045;42.812;74.638;2024-03-17T13:30:36;50.47;;;20.08;;
83895;SDS011;74045;42.812;74.638;2024-03-17T13:33:03;47.30;;;20.55;;
83895;SDS011;74045;42.812;74.638;2024-03-17T13:35:37;39.13;;;20.13;;
83895;SDS011;74045;42.812;74.638;2024-03-17T13:38:05;40.50;;;18.65;;
83895;SDS011;74045;42.812;74.638;2024-03-17T13:40:32;44.08;;;20.55;;
83895;SDS011;74045;42.812;74.638;2024-03-17T13:42:58;43.70;;;20.60;;
83895;SDS011;74045;42.812;74.638;2024-03-17T13:45:25;51.13;;;23.27;;
83895;SDS011;74045;42.812;74.638;2024-03-17T13:48:00;44.25;;;22.17;;
83895;SDS011;74045;42.812;74.638;2024-03-17T13:50:29;43.45;;;19.17;;
83895;SDS011;74045;42.812;74.638;2024-03-17T13:52:55;53.13;;;19.05;;
83895;SDS011;74045;42.812;74.638;2024-03-17T13:55:22;49.42;;;18.83;;
83895;SDS011;74045;42.812;74.638;2024-03-17T13:57:53;36.65;;;18.75;;
83895;SDS011;74045;42.812;74.638;2024-03-17T14:00:24;43.72;;;17.73;;
83895;SDS011;74045;42.812;74.638;2024-03-17T14:02:52;41.47;;;17.80;;
83895;SDS011;74045;42.812;74.638;2024-03-17T14:05:19;35.28;;;17.17;;
83895;SDS011;74045;42.812;74.638;2024-03-17T14:07:46;39.28;;;17.38;;
83895;SDS011;74045;42.812;74.638;2024-03-17T14:10:14;46.38;;;19.42;;
83895;SDS011;74045;42.812;74.638;2024-03-17T14:12:42;51.42;;;22.13;;
83895;SDS011;74045;42.812;74.638;2024-03-17T14:15:08;47.78;;;20.65;;
83895;SDS011;74045;42.812;74.638;2024-03-17T14:17:38;53.80;;;20.60;;
83895;SDS011;74045;42.812;74.638;2024-03-17T14:20:05;49.92;;;20.55;;
83895;SDS011;74045;42.812;74.638;2024-03-17T14:22:34;45.45;;;19.80;;
83895;SDS011;74045;42.812;74.638;2024-03-17T14:25:04;42.22;;;20.08;;
83895;SDS011;74045;42.812;74.638;2024-03-17T14:27:31;37.60;;;19.38;;
83895;SDS011;74045;42.812;74.638;2024-03-17T14:29:57;48.85;;;19.85;;
83895;SDS011;74045;42.812;74.638;2024-03-17T14:32:23;47.55;;;21.13;;
83895;SDS011;74045;42.812;74.638;2024-03-17T14:34:49;43.67;;;19.90;;
83895;SDS011;74045;42.812;74.638;2024-03-17T14:37:14;45.00;;;19.80;;
83895;SDS011;74045;42.812;74.638;2024-03-17T14:39:40;44.42;;;20.25;;
83895;SDS011;74045;42.812;74.638;2024-03-17T14:42:06;49.33;;;21.17;;
83895;SDS011;74045;42.812;74.638;2024-03-17T14:44:33;46.55;;;21.77;;